sensor_id;sensor_type;location;lat;lon;timestamp;temperature;humidity
46976;DHT22;32724;51.094;6.996;2022-12-11T00:01:27;0.50;99.90
46976;DHT22;32724;51.094;6.996;2022-12-11T00:03:53;0.50;99.90
46976;DHT22;32724;51.094;6.996;2022-12-11T00:06:19;0.50;99.90
46976;DHT22;32724;51.094;6.996;2022-12-11T00:08:45;0.50;99.90
46976;DHT22;32724;51.094;6.996;2022-12-11T00:11:15;0.50;99.90
46976;DHT22;32724;51.094;6.996;2022-12-11T00:13:41;0.40;99.90
46976;DHT22;32724;51.094;6.996;2022-12-11T00:16:06;0.50;99.90
46976;DHT22;32724;51.094;6.996;2022-12-11T00:18:32;0.80;99.90
46976;DHT22;32724;51.094;6.996;2022-12-11T00:21:05;0.60;99.90
46976;DHT22;32724;51.094;6.996;2022-12-11T00:23:30;0.50;99.90
46976;DHT22;32724;51.094;6.996;2022-12-11T00:25:56;0.40;99.90
46976;DHT22;32724;51.094;6.996;2022-12-11T00:28:21;0.30;99.90
46976;DHT22;32724;51.094;6.996;2022-12-11T00:30:47;0.30;99.90
46976;DHT22;32724;51.094;6.996;2022-12-11T00:33:13;0.30;99.90
46976;DHT22;32724;51.094;6.996;2022-12-11T00:35:39;0.30;99.90
46976;DHT22;32724;51.094;6.996;2022-12-11T00:38:05;0.30;99.90
46976;DHT22;32724;51.094;6.996;2022-12-11T00:40:34;0.20;99.90
46976;DHT22;32724;51.094;6.996;2022-12-11T00:43:00;0.20;99.90
46976;DHT22;32724;51.094;6.996;2022-12-11T00:45:26;0.30;99.90
46976;DHT22;32724;51.094;6.996;2022-12-11T00:47:51;0.30;99.90
46976;DHT22;32724;51.094;6.996;2022-12-11T00:50:17;0.30;99.90
46976;DHT22;32724;51.094;6.996;2022-12-11T00:52:42;0.40;99.90
46976;DHT22;32724;51.094;6.996;2022-12-11T00:55:08;0.40;99.90
46976;DHT22;32724;51.094;6.996;2022-12-11T00:57:33;0.40;99.90
46976;DHT22;32724;51.094;6.996;2022-12-11T00:59:59;0.40;99.90
46976;DHT22;32724;51.094;6.996;2022-12-11T01:02:24;0.50;99.90
46976;DHT22;32724;51.094;6.996;2022-12-11T01:04:50;0.60;99.90
46976;DHT22;32724;51.094;6.996;2022-12-11T01:07:15;0.60;99.90
46976;DHT22;32724;51.094;6.996;2022-12-11T01:09:40;0.70;99.90
46976;DHT22;32724;51.094;6.996;2022-12-11T01:12:25;0.70;99.90
46976;DHT22;32724;51.094;6.996;2022-12-11T01:14:52;0.70;99.90
46976;DHT22;32724;51.094;6.996;2022-12-11T01:17:18;0.70;99.90
46976;DHT22;32724;51.094;6.996;2022-12-11T01:19:43;0.70;99.90
46976;DHT22;32724;51.094;6.996;2022-12-11T01:22:09;0.70;99.90
46976;DHT22;32724;51.094;6.996;2022-12-11T01:24:34;0.60;99.90
46976;DHT22;32724;51.094;6.996;2022-12-11T01:27:00;0.40;99.90
46976;DHT22;32724;51.094;6.996;2022-12-11T01:29:25;0.40;99.90
46976;DHT22;32724;51.094;6.996;2022-12-11T01:31:51;0.50;99.90
46976;DHT22;32724;51.094;6.996;2022-12-11T01:34:16;0.50;99.90
46976;DHT22;32724;51.094;6.996;2022-12-11T01:36:41;0.50;99.90
46976;DHT22;32724;51.094;6.996;2022-12-11T01:39:07;0.60;99.90
46976;DHT22;32724;51.094;6.996;2022-12-11T01:41:32;0.60;99.90
46976;DHT22;32724;51.094;6.996;2022-12-11T01:46:23;0.60;99.90
46976;DHT22;32724;51.094;6.996;2022-12-11T01:48:49;0.60;99.90
46976;DHT22;32724;51.094;6.996;2022-12-11T01:51:14;0.60;99.90
46976;DHT22;32724;51.094;6.996;2022-12-11T01:53:41;0.60;99.90
46976;DHT22;32724;51.094;6.996;2022-12-11T01:56:07;0.50;99.90
46976;DHT22;32724;51.094;6.996;2022-12-11T01:58:34;0.50;99.90
46976;DHT22;32724;51.094;6.996;2022-12-11T02:01:02;0.50;99.90
46976;DHT22;32724;51.094;6.996;2022-12-11T02:03:28;0.60;99.90
46976;DHT22;32724;51.094;6.996;2022-12-11T02:05:53;0.70;99.90
46976;DHT22;32724;51.094;6.996;2022-12-11T02:08:19;0.70;99.90
46976;DHT22;32724;51.094;6.996;2022-12-11T02:10:50;0.70;99.90
46976;DHT22;32724;51.094;6.996;2022-12-11T02:14:04;0.70;99.90
46976;DHT22;32724;51.094;6.996;2022-12-11T02:16:05;0.80;99.90
46976;DHT22;32724;51.094;6.996;2022-12-11T02:18:35;0.80;99.90
46976;DHT22;32724;51.094;6.996;2022-12-11T02:23:32;0.80;99.90
46976;DHT22;32724;51.094;6.996;2022-12-11T02:26:20;0.70;99.90
46976;DHT22;32724;51.094;6.996;2022-12-11T02:28:59;0.70;99.90
46976;DHT22;32724;51.094;6.996;2022-12-11T02:31:48;0.70;99.90
46976;DHT22;32724;51.094;6.996;2022-12-11T02:34:12;0.70;99.90
46976;DHT22;32724;51.094;6.996;2022-12-11T02:36:42;0.60;99.90
46976;DHT22;32724;51.094;6.996;2022-12-11T02:39:09;0.60;99.90
46976;DHT22;32724;51.094;6.996;2022-12-11T02:41:36;0.60;99.90
46976;DHT22;32724;51.094;6.996;2022-12-11T02:44:03;0.60;99.90
46976;DHT22;32724;51.094;6.996;2022-12-11T02:46:29;0.60;99.90
46976;DHT22;32724;51.094;6.996;2022-12-11T02:48:55;0.50;99.90
46976;DHT22;32724;51.094;6.996;2022-12-11T02:51:23;0.50;99.90
46976;DHT22;32724;51.094;6.996;2022-12-11T02:53:49;0.50;99.90
46976;DHT22;32724;51.094;6.996;2022-12-11T02:56:18;0.50;99.90
46976;DHT22;32724;51.094;6.996;2022-12-11T02:58:47;0.50;99.90
46976;DHT22;32724;51.094;6.996;2022-12-11T03:01:12;0.60;99.90
46976;DHT22;32724;51.094;6.996;2022-12-11T03:03:38;0.80;99.90
46976;DHT22;32724;51.094;6.996;2022-12-11T03:06:03;0.60;99.90
46976;DHT22;32724;51.094;6.996;2022-12-11T03:08:29;0.50;99.90
46976;DHT22;32724;51.094;6.996;2022-12-11T03:10:55;0.50;99.90
46976;DHT22;32724;51.094;6.996;2022-12-11T03:13:21;0.40;99.90
46976;DHT22;32724;51.094;6.996;2022-12-11T03:21:00;0.40;99.90
46976;DHT22;32724;51.094;6.996;2022-12-11T03:23:32;0.30;99.90
46976;DHT22;32724;51.094;6.996;2022-12-11T03:26:02;0.30;99.90
46976;DHT22;32724;51.094;6.996;2022-12-11T03:31:02;0.30;99.90
46976;DHT22;32724;51.094;6.996;2022-12-11T03:33:30;0.40;99.90
46976;DHT22;32724;51.094;6.996;2022-12-11T03:35:59;0.40;99.90
46976;DHT22;32724;51.094;6.996;2022-12-11T03:38:30;0.50;99.90
46976;DHT22;32724;51.094;6.996;2022-12-11T03:40:58;0.50;99.90
46976;DHT22;32724;51.094;6.996;2022-12-11T03:43:25;0.50;99.90
46976;DHT22;32724;51.094;6.996;2022-12-11T03:45:50;0.50;99.90
46976;DHT22;32724;51.094;6.996;2022-12-11T03:48:16;0.40;99.90
46976;DHT22;32724;51.094;6.996;2022-12-11T03:50:43;0.30;99.90
46976;DHT22;32724;51.094;6.996;2022-12-11T03:53:10;0.30;99.90
46976;DHT22;32724;51.094;6.996;2022-12-11T03:55:36;0.40;99.90
46976;DHT22;32724;51.094;6.996;2022-12-11T03:58:02;0.50;99.90
46976;DHT22;32724;51.094;6.996;2022-12-11T04:00:28;0.60;99.90
46976;DHT22;32724;51.094;6.996;2022-12-11T04:02:53;0.60;99.90
46976;DHT22;32724;51.094;6.996;2022-12-11T04:05:38;0.70;99.90
46976;DHT22;32724;51.094;6.996;2022-12-11T04:08:03;0.90;99.90
46976;DHT22;32724;51.094;6.996;2022-12-11T04:10:29;0.60;99.90
46976;DHT22;32724;51.094;6.996;2022-12-11T04:12:54;0.50;99.90
46976;DHT22;32724;51.094;6.996;2022-12-11T04:15:20;0.40;99.90
46976;DHT22;32724;51.094;6.996;2022-12-11T04:17:45;0.40;99.90
46976;DHT22;32724;51.094;6.996;2022-12-11T04:20:29;0.40;99.90
46976;DHT22;32724;51.094;6.996;2022-12-11T04:23:14;0.30;99.90
46976;DHT22;32724;51.094;6.996;2022-12-11T04:26:06;0.30;99.90
46976;DHT22;32724;51.094;6.996;2022-12-11T04:28:32;0.30;99.90
46976;DHT22;32724;51.094;6.996;2022-12-11T04:30:58;0.40;99.90
46976;DHT22;32724;51.094;6.996;2022-12-11T04:33:23;0.40;99.90
46976;DHT22;32724;51.094;6.996;2022-12-11T04:35:48;0.30;99.90
46976;DHT22;32724;51.094;6.996;2022-12-11T04:38:14;0.20;99.90
46976;DHT22;32724;51.094;6.996;2022-12-11T04:40:39;0.20;99.90
46976;DHT22;32724;51.094;6.996;2022-12-11T04:43:05;0.20;99.90
46976;DHT22;32724;51.094;6.996;2022-12-11T04:45:30;0.20;99.90
46976;DHT22;32724;51.094;6.996;2022-12-11T04:47:56;0.30;99.90
46976;DHT22;32724;51.094;6.996;2022-12-11T04:50:21;0.40;99.90
46976;DHT22;32724;51.094;6.996;2022-12-11T04:52:47;0.40;99.90
46976;DHT22;32724;51.094;6.996;2022-12-11T04:55:12;0.50;99.90
46976;DHT22;32724;51.094;6.996;2022-12-11T04:57:38;0.50;99.90
46976;DHT22;32724;51.094;6.996;2022-12-11T05:00:04;0.60;99.90
46976;DHT22;32724;51.094;6.996;2022-12-11T05:02:32;0.60;99.90
46976;DHT22;32724;51.094;6.996;2022-12-11T05:04:58;0.60;99.90
46976;DHT22;32724;51.094;6.996;2022-12-11T05:07:23;0.60;99.90
46976;DHT22;32724;51.094;6.996;2022-12-11T05:09:49;0.60;99.90
46976;DHT22;32724;51.094;6.996;2022-12-11T05:12:14;0.70;99.90
46976;DHT22;32724;51.094;6.996;2022-12-11T05:14:40;0.50;99.90
46976;DHT22;32724;51.094;6.996;2022-12-11T05:17:05;0.40;99.90
46976;DHT22;32724;51.094;6.996;2022-12-11T05:19:31;0.30;99.90
46976;DHT22;32724;51.094;6.996;2022-12-11T05:21:56;0.30;99.90
46976;DHT22;32724;51.094;6.996;2022-12-11T05:24:21;0.20;99.90
46976;DHT22;32724;51.094;6.996;2022-12-11T05:26:47;0.20;99.90
46976;DHT22;32724;51.094;6.996;2022-12-11T05:29:12;0.20;99.90
46976;DHT22;32724;51.094;6.996;2022-12-11T05:31:38;0.20;99.90
46976;DHT22;32724;51.094;6.996;2022-12-11T05:34:03;0.30;99.90
46976;DHT22;32724;51.094;6.996;2022-12-11T05:36:30;0.40;99.90
46976;DHT22;32724;51.094;6.996;2022-12-11T05:38:56;0.40;99.90
46976;DHT22;32724;51.094;6.996;2022-12-11T05:41:23;0.50;99.90
46976;DHT22;32724;51.094;6.996;2022-12-11T05:43:48;0.50;99.90
46976;DHT22;32724;51.094;6.996;2022-12-11T05:46:16;0.50;99.90
46976;DHT22;32724;51.094;6.996;2022-12-11T05:48:42;0.50;99.90
46976;DHT22;32724;51.094;6.996;2022-12-11T05:51:08;0.60;99.90
46976;DHT22;32724;51.094;6.996;2022-12-11T05:53:37;0.60;99.90
46976;DHT22;32724;51.094;6.996;2022-12-11T05:56:06;0.60;99.90
46976;DHT22;32724;51.094;6.996;2022-12-11T05:59:00;0.70;99.90
46976;DHT22;32724;51.094;6.996;2022-12-11T06:01:30;0.80;99.90
46976;DHT22;32724;51.094;6.996;2022-12-11T06:03:56;0.80;99.90
46976;DHT22;32724;51.094;6.996;2022-12-11T06:06:22;0.80;99.90
46976;DHT22;32724;51.094;6.996;2022-12-11T06:08:48;0.80;99.90
46976;DHT22;32724;51.094;6.996;2022-12-11T06:11:14;0.80;99.90
46976;DHT22;32724;51.094;6.996;2022-12-11T06:13:39;0.80;99.90
46976;DHT22;32724;51.094;6.996;2022-12-11T06:16:06;0.70;99.90
46976;DHT22;32724;51.094;6.996;2022-12-11T06:18:35;0.70;99.90
46976;DHT22;32724;51.094;6.996;2022-12-11T06:21:01;0.70;99.90
46976;DHT22;32724;51.094;6.996;2022-12-11T06:23:26;0.70;99.90
46976;DHT22;32724;51.094;6.996;2022-12-11T06:25:52;0.70;99.90
46976;DHT22;32724;51.094;6.996;2022-12-11T06:28:17;0.70;99.90
46976;DHT22;32724;51.094;6.996;2022-12-11T06:30:43;0.60;99.90
46976;DHT22;32724;51.094;6.996;2022-12-11T06:33:09;0.60;99.90
46976;DHT22;32724;51.094;6.996;2022-12-11T06:35:34;0.60;99.90
46976;DHT22;32724;51.094;6.996;2022-12-11T06:38:00;0.60;99.90
46976;DHT22;32724;51.094;6.996;2022-12-11T06:40:26;0.60;99.90
46976;DHT22;32724;51.094;6.996;2022-12-11T06:42:52;0.60;99.90
46976;DHT22;32724;51.094;6.996;2022-12-11T06:45:18;0.60;99.90
46976;DHT22;32724;51.094;6.996;2022-12-11T06:47:44;0.60;99.90
46976;DHT22;32724;51.094;6.996;2022-12-11T06:50:09;0.60;99.90
46976;DHT22;32724;51.094;6.996;2022-12-11T06:52:35;0.50;99.90
46976;DHT22;32724;51.094;6.996;2022-12-11T06:55:00;0.50;99.90
46976;DHT22;32724;51.094;6.996;2022-12-11T06:57:26;0.60;99.90
46976;DHT22;32724;51.094;6.996;2022-12-11T06:59:51;0.60;99.90
46976;DHT22;32724;51.094;6.996;2022-12-11T07:02:17;0.90;99.90
46976;DHT22;32724;51.094;6.996;2022-12-11T07:04:43;0.70;99.90
46976;DHT22;32724;51.094;6.996;2022-12-11T07:07:09;0.50;99.90
46976;DHT22;32724;51.094;6.996;2022-12-11T07:09:35;0.40;99.90
46976;DHT22;32724;51.094;6.996;2022-12-11T07:12:01;0.40;99.90
46976;DHT22;32724;51.094;6.996;2022-12-11T07:14:28;0.30;99.90
46976;DHT22;32724;51.094;6.996;2022-12-11T07:16:55;0.30;99.90
46976;DHT22;32724;51.094;6.996;2022-12-11T07:19:20;0.20;99.90
46976;DHT22;32724;51.094;6.996;2022-12-11T07:21:46;0.20;99.90
46976;DHT22;32724;51.094;6.996;2022-12-11T07:24:11;0.20;99.90
46976;DHT22;32724;51.094;6.996;2022-12-11T07:26:37;0.20;99.90
46976;DHT22;32724;51.094;6.996;2022-12-11T07:29:02;0.20;99.90
46976;DHT22;32724;51.094;6.996;2022-12-11T07:31:28;0.30;99.90
46976;DHT22;32724;51.094;6.996;2022-12-11T07:33:57;0.40;99.90
46976;DHT22;32724;51.094;6.996;2022-12-11T07:36:23;0.50;99.90
46976;DHT22;32724;51.094;6.996;2022-12-11T07:38:49;0.60;99.90
46976;DHT22;32724;51.094;6.996;2022-12-11T07:41:15;0.60;99.90
46976;DHT22;32724;51.094;6.996;2022-12-11T07:43:40;0.60;99.90
46976;DHT22;32724;51.094;6.996;2022-12-11T07:46:07;0.60;99.90
46976;DHT22;32724;51.094;6.996;2022-12-11T07:48:34;0.80;99.90
46976;DHT22;32724;51.094;6.996;2022-12-11T07:51:06;0.60;99.90
46976;DHT22;32724;51.094;6.996;2022-12-11T07:53:32;0.40;99.90
46976;DHT22;32724;51.094;6.996;2022-12-11T07:55:57;0.40;99.90
46976;DHT22;32724;51.094;6.996;2022-12-11T07:58:23;0.30;99.90
46976;DHT22;32724;51.094;6.996;2022-12-11T08:00:48;0.30;99.90
46976;DHT22;32724;51.094;6.996;2022-12-11T08:03:14;0.10;99.90
46976;DHT22;32724;51.094;6.996;2022-12-11T08:05:39;0.10;99.90
46976;DHT22;32724;51.094;6.996;2022-12-11T08:08:10;0.00;99.90
46976;DHT22;32724;51.094;6.996;2022-12-11T08:10:36;0.00;99.90
46976;DHT22;32724;51.094;6.996;2022-12-11T08:13:01;0.00;99.90
46976;DHT22;32724;51.094;6.996;2022-12-11T08:15:26;0.10;99.90
46976;DHT22;32724;51.094;6.996;2022-12-11T08:17:52;0.20;99.90
46976;DHT22;32724;51.094;6.996;2022-12-11T08:20:17;0.20;99.90
46976;DHT22;32724;51.094;6.996;2022-12-11T08:22:43;0.20;99.90
46976;DHT22;32724;51.094;6.996;2022-12-11T08:25:08;0.40;99.90
46976;DHT22;32724;51.094;6.996;2022-12-11T08:27:34;0.50;99.90
46976;DHT22;32724;51.094;6.996;2022-12-11T08:29:59;0.60;99.90
46976;DHT22;32724;51.094;6.996;2022-12-11T08:32:25;0.60;99.90
46976;DHT22;32724;51.094;6.996;2022-12-11T08:34:50;0.70;99.90
46976;DHT22;32724;51.094;6.996;2022-12-11T08:37:16;0.80;99.90
46976;DHT22;32724;51.094;6.996;2022-12-11T08:39:42;0.80;99.90
46976;DHT22;32724;51.094;6.996;2022-12-11T08:42:08;0.90;99.90
46976;DHT22;32724;51.094;6.996;2022-12-11T08:44:33;0.90;99.90
46976;DHT22;32724;51.094;6.996;2022-12-11T08:46:59;0.70;99.90
46976;DHT22;32724;51.094;6.996;2022-12-11T08:49:24;0.50;99.90
46976;DHT22;32724;51.094;6.996;2022-12-11T08:51:49;0.60;99.90
46976;DHT22;32724;51.094;6.996;2022-12-11T08:54:15;0.70;99.90
46976;DHT22;32724;51.094;6.996;2022-12-11T08:56:40;0.60;99.90
46976;DHT22;32724;51.094;6.996;2022-12-11T08:59:06;0.70;99.90
46976;DHT22;32724;51.094;6.996;2022-12-11T09:01:31;0.70;99.90
46976;DHT22;32724;51.094;6.996;2022-12-11T09:03:57;0.70;99.90
46976;DHT22;32724;51.094;6.996;2022-12-11T09:06:24;0.80;99.90
46976;DHT22;32724;51.094;6.996;2022-12-11T09:08:50;0.80;99.90
46976;DHT22;32724;51.094;6.996;2022-12-11T09:11:18;0.90;99.90
46976;DHT22;32724;51.094;6.996;2022-12-11T09:13:44;0.90;99.90
46976;DHT22;32724;51.094;6.996;2022-12-11T09:16:10;0.90;99.90
46976;DHT22;32724;51.094;6.996;2022-12-11T09:18:37;0.90;99.90
46976;DHT22;32724;51.094;6.996;2022-12-11T09:21:06;1.00;99.90
46976;DHT22;32724;51.094;6.996;2022-12-11T09:23:32;1.10;99.90
46976;DHT22;32724;51.094;6.996;2022-12-11T09:25:57;1.20;99.90
46976;DHT22;32724;51.094;6.996;2022-12-11T09:28:23;1.20;99.90
46976;DHT22;32724;51.094;6.996;2022-12-11T09:30:49;1.30;99.90
46976;DHT22;32724;51.094;6.996;2022-12-11T09:33:15;1.30;99.90
46976;DHT22;32724;51.094;6.996;2022-12-11T09:35:40;1.40;99.90
46976;DHT22;32724;51.094;6.996;2022-12-11T09:38:06;1.40;99.90
46976;DHT22;32724;51.094;6.996;2022-12-11T09:40:31;1.40;99.90
46976;DHT22;32724;51.094;6.996;2022-12-11T09:43:08;1.40;99.90
46976;DHT22;32724;51.094;6.996;2022-12-11T09:45:40;1.30;99.90
46976;DHT22;32724;51.094;6.996;2022-12-11T09:48:06;1.30;99.90
46976;DHT22;32724;51.094;6.996;2022-12-11T09:50:33;1.30;99.90
46976;DHT22;32724;51.094;6.996;2022-12-11T09:53:04;1.20;99.90
46976;DHT22;32724;51.094;6.996;2022-12-11T10:01:00;1.20;99.90
46976;DHT22;32724;51.094;6.996;2022-12-11T10:03:30;1.20;99.90
46976;DHT22;32724;51.094;6.996;2022-12-11T10:06:06;1.20;99.90
46976;DHT22;32724;51.094;6.996;2022-12-11T10:08:52;1.30;99.90
46976;DHT22;32724;51.094;6.996;2022-12-11T10:14:10;1.30;99.90
46976;DHT22;32724;51.094;6.996;2022-12-11T10:16:38;1.40;99.90
46976;DHT22;32724;51.094;6.996;2022-12-11T10:19:04;1.40;99.90
46976;DHT22;32724;51.094;6.996;2022-12-11T10:21:34;1.30;99.90
46976;DHT22;32724;51.094;6.996;2022-12-11T10:24:01;1.30;99.90
46976;DHT22;32724;51.094;6.996;2022-12-11T10:26:28;1.40;99.90
46976;DHT22;32724;51.094;6.996;2022-12-11T10:28:58;1.40;99.90
46976;DHT22;32724;51.094;6.996;2022-12-11T10:31:31;1.60;99.90
46976;DHT22;32724;51.094;6.996;2022-12-11T10:34:03;1.20;99.90
46976;DHT22;32724;51.094;6.996;2022-12-11T10:36:30;0.70;99.90
46976;DHT22;32724;51.094;6.996;2022-12-11T10:38:56;0.60;99.90
46976;DHT22;32724;51.094;6.996;2022-12-11T10:41:23;0.40;99.90
46976;DHT22;32724;51.094;6.996;2022-12-11T10:43:49;0.40;99.90
46976;DHT22;32724;51.094;6.996;2022-12-11T10:46:17;0.60;99.90
46976;DHT22;32724;51.094;6.996;2022-12-11T10:48:50;0.80;99.90
46976;DHT22;32724;51.094;6.996;2022-12-11T10:51:17;0.90;99.90
46976;DHT22;32724;51.094;6.996;2022-12-11T10:53:48;1.10;99.90
46976;DHT22;32724;51.094;6.996;2022-12-11T10:56:14;1.20;99.90
46976;DHT22;32724;51.094;6.996;2022-12-11T10:58:47;1.20;99.90
46976;DHT22;32724;51.094;6.996;2022-12-11T11:01:14;1.00;99.90
46976;DHT22;32724;51.094;6.996;2022-12-11T11:06:18;1.00;99.90
46976;DHT22;32724;51.094;6.996;2022-12-11T11:08:45;1.00;99.90
46976;DHT22;32724;51.094;6.996;2022-12-11T11:11:22;1.10;99.90
46976;DHT22;32724;51.094;6.996;2022-12-11T11:13:48;1.20;99.90
46976;DHT22;32724;51.094;6.996;2022-12-11T11:16:14;1.20;99.90
46976;DHT22;32724;51.094;6.996;2022-12-11T11:18:47;1.00;99.90
46976;DHT22;32724;51.094;6.996;2022-12-11T11:21:20;0.90;99.90
46976;DHT22;32724;51.094;6.996;2022-12-11T11:23:47;0.90;99.90
46976;DHT22;32724;51.094;6.996;2022-12-11T11:26:13;0.90;99.90
46976;DHT22;32724;51.094;6.996;2022-12-11T11:28:40;0.90;99.90
46976;DHT22;32724;51.094;6.996;2022-12-11T11:31:10;0.90;99.90
46976;DHT22;32724;51.094;6.996;2022-12-11T11:33:36;1.00;99.90
46976;DHT22;32724;51.094;6.996;2022-12-11T11:36:35;1.00;99.90
46976;DHT22;32724;51.094;6.996;2022-12-11T11:44:14;1.00;99.90
46976;DHT22;32724;51.094;6.996;2022-12-11T11:51:38;0.90;99.90
46976;DHT22;32724;51.094;6.996;2022-12-11T11:54:47;0.90;99.90
46976;DHT22;32724;51.094;6.996;2022-12-11T11:56:53;1.10;99.90
46976;DHT22;32724;51.094;6.996;2022-12-11T12:01:45;1.50;99.90
46976;DHT22;32724;51.094;6.996;2022-12-11T12:04:11;1.30;99.90
46976;DHT22;32724;51.094;6.996;2022-12-11T12:14:30;1.20;99.90
46976;DHT22;32724;51.094;6.996;2022-12-11T12:19:45;1.30;99.90
46976;DHT22;32724;51.094;6.996;2022-12-11T12:22:32;1.20;99.90
46976;DHT22;32724;51.094;6.996;2022-12-11T12:25:14;1.20;99.90
46976;DHT22;32724;51.094;6.996;2022-12-11T12:27:45;1.20;99.90
46976;DHT22;32724;51.094;6.996;2022-12-11T12:30:14;1.30;99.90
46976;DHT22;32724;51.094;6.996;2022-12-11T12:40:26;1.40;99.90
46976;DHT22;32724;51.094;6.996;2022-12-11T12:42:58;1.40;99.90
46976;DHT22;32724;51.094;6.996;2022-12-11T12:45:27;1.30;99.90
46976;DHT22;32724;51.094;6.996;2022-12-11T12:47:54;1.20;99.90
46976;DHT22;32724;51.094;6.996;2022-12-11T12:50:25;1.10;99.90
46976;DHT22;32724;51.094;6.996;2022-12-11T12:52:53;1.00;99.90
46976;DHT22;32724;51.094;6.996;2022-12-11T12:55:20;1.00;99.90
46976;DHT22;32724;51.094;6.996;2022-12-11T13:03:14;1.40;99.90
46976;DHT22;32724;51.094;6.996;2022-12-11T13:05:44;1.40;99.90
46976;DHT22;32724;51.094;6.996;2022-12-11T13:08:10;1.50;99.90
46976;DHT22;32724;51.094;6.996;2022-12-11T13:10:37;1.40;99.90
46976;DHT22;32724;51.094;6.996;2022-12-11T13:13:05;1.50;99.90
46976;DHT22;32724;51.094;6.996;2022-12-11T13:15:49;1.50;99.90
46976;DHT22;32724;51.094;6.996;2022-12-11T13:21:01;1.50;99.90
46976;DHT22;32724;51.094;6.996;2022-12-11T13:23:28;1.60;99.90
46976;DHT22;32724;51.094;6.996;2022-12-11T13:25:55;1.50;99.90
46976;DHT22;32724;51.094;6.996;2022-12-11T13:28:23;1.50;99.90
46976;DHT22;32724;51.094;6.996;2022-12-11T13:31:25;1.40;99.90
46976;DHT22;32724;51.094;6.996;2022-12-11T13:38:35;1.50;99.90
46976;DHT22;32724;51.094;6.996;2022-12-11T13:41:02;1.60;99.90
46976;DHT22;32724;51.094;6.996;2022-12-11T13:43:30;1.70;99.90
46976;DHT22;32724;51.094;6.996;2022-12-11T13:46:20;1.80;99.90
46976;DHT22;32724;51.094;6.996;2022-12-11T13:48:45;1.70;99.90
46976;DHT22;32724;51.094;6.996;2022-12-11T13:51:18;1.70;99.90
46976;DHT22;32724;51.094;6.996;2022-12-11T13:53:44;1.60;99.90
46976;DHT22;32724;51.094;6.996;2022-12-11T13:56:28;1.60;99.90
46976;DHT22;32724;51.094;6.996;2022-12-11T13:58:53;1.50;99.90
46976;DHT22;32724;51.094;6.996;2022-12-11T14:01:20;1.40;99.90
46976;DHT22;32724;51.094;6.996;2022-12-11T14:03:52;1.40;99.90
46976;DHT22;32724;51.094;6.996;2022-12-11T14:06:18;1.40;99.90
46976;DHT22;32724;51.094;6.996;2022-12-11T14:08:44;1.40;99.90
46976;DHT22;32724;51.094;6.996;2022-12-11T14:11:22;1.30;99.90
46976;DHT22;32724;51.094;6.996;2022-12-11T14:13:47;1.40;99.90
46976;DHT22;32724;51.094;6.996;2022-12-11T14:16:18;1.20;99.90
46976;DHT22;32724;51.094;6.996;2022-12-11T14:18:44;1.10;99.90
46976;DHT22;32724;51.094;6.996;2022-12-11T14:21:20;1.10;99.90
46976;DHT22;32724;51.094;6.996;2022-12-11T14:23:53;1.20;99.90
46976;DHT22;32724;51.094;6.996;2022-12-11T14:26:20;1.20;99.90
46976;DHT22;32724;51.094;6.996;2022-12-11T14:28:46;1.30;99.90
46976;DHT22;32724;51.094;6.996;2022-12-11T14:31:13;1.40;99.90
46976;DHT22;32724;51.094;6.996;2022-12-11T14:33:40;1.50;99.90
46976;DHT22;32724;51.094;6.996;2022-12-11T14:36:08;1.60;99.90
46976;DHT22;32724;51.094;6.996;2022-12-11T14:38:38;1.70;99.90
46976;DHT22;32724;51.094;6.996;2022-12-11T14:41:18;1.70;99.90
46976;DHT22;32724;51.094;6.996;2022-12-11T14:43:50;1.60;99.90
46976;DHT22;32724;51.094;6.996;2022-12-11T14:46:21;1.60;99.90
46976;DHT22;32724;51.094;6.996;2022-12-11T14:48:59;1.50;99.90
46976;DHT22;32724;51.094;6.996;2022-12-11T14:51:26;1.40;99.90
46976;DHT22;32724;51.094;6.996;2022-12-11T14:53:52;1.30;99.90
46976;DHT22;32724;51.094;6.996;2022-12-11T14:56:20;1.30;99.90
46976;DHT22;32724;51.094;6.996;2022-12-11T14:58:54;1.20;99.90
46976;DHT22;32724;51.094;6.996;2022-12-11T15:01:24;1.20;99.90
46976;DHT22;32724;51.094;6.996;2022-12-11T15:04:00;1.20;99.90
46976;DHT22;32724;51.094;6.996;2022-12-11T15:06:33;1.20;99.90
46976;DHT22;32724;51.094;6.996;2022-12-11T15:11:58;1.20;99.90
46976;DHT22;32724;51.094;6.996;2022-12-11T15:14:31;1.20;99.90
46976;DHT22;32724;51.094;6.996;2022-12-11T15:16:57;1.20;99.90
46976;DHT22;32724;51.094;6.996;2022-12-11T15:19:24;1.20;99.90
46976;DHT22;32724;51.094;6.996;2022-12-11T15:21:51;1.50;99.90
46976;DHT22;32724;51.094;6.996;2022-12-11T15:24:21;1.40;99.90
46976;DHT22;32724;51.094;6.996;2022-12-11T15:26:48;1.40;99.90
46976;DHT22;32724;51.094;6.996;2022-12-11T15:34:42;1.30;99.90
46976;DHT22;32724;51.094;6.996;2022-12-11T15:39:42;1.30;99.90
46976;DHT22;32724;51.094;6.996;2022-12-11T15:42:08;1.30;99.90
46976;DHT22;32724;51.094;6.996;2022-12-11T15:44:34;1.30;99.90
46976;DHT22;32724;51.094;6.996;2022-12-11T15:47:09;1.30;99.90
46976;DHT22;32724;51.094;6.996;2022-12-11T15:49:35;1.30;99.90
46976;DHT22;32724;51.094;6.996;2022-12-11T15:52:00;1.30;99.90
46976;DHT22;32724;51.094;6.996;2022-12-11T15:54:26;1.30;99.90
46976;DHT22;32724;51.094;6.996;2022-12-11T15:56:51;1.30;99.90
46976;DHT22;32724;51.094;6.996;2022-12-11T15:59:16;1.30;99.90
46976;DHT22;32724;51.094;6.996;2022-12-11T16:01:43;1.30;99.90
46976;DHT22;32724;51.094;6.996;2022-12-11T16:04:08;1.30;99.90
46976;DHT22;32724;51.094;6.996;2022-12-11T16:06:33;1.30;99.90
46976;DHT22;32724;51.094;6.996;2022-12-11T16:08:59;1.20;99.90
46976;DHT22;32724;51.094;6.996;2022-12-11T16:11:25;1.20;99.90
46976;DHT22;32724;51.094;6.996;2022-12-11T16:13:51;1.20;99.90
46976;DHT22;32724;51.094;6.996;2022-12-11T16:16:16;1.20;99.90
46976;DHT22;32724;51.094;6.996;2022-12-11T16:18:42;1.20;99.90
46976;DHT22;32724;51.094;6.996;2022-12-11T16:21:07;1.20;99.90
46976;DHT22;32724;51.094;6.996;2022-12-11T16:23:33;1.20;99.90
46976;DHT22;32724;51.094;6.996;2022-12-11T16:25:58;1.20;99.90
46976;DHT22;32724;51.094;6.996;2022-12-11T16:28:29;1.10;99.90
46976;DHT22;32724;51.094;6.996;2022-12-11T16:30:54;1.00;99.90
46976;DHT22;32724;51.094;6.996;2022-12-11T16:33:20;1.00;99.90
46976;DHT22;32724;51.094;6.996;2022-12-11T16:35:45;1.00;99.90
46976;DHT22;32724;51.094;6.996;2022-12-11T16:38:11;1.00;99.90
46976;DHT22;32724;51.094;6.996;2022-12-11T16:40:37;1.00;99.90
46976;DHT22;32724;51.094;6.996;2022-12-11T16:43:03;1.00;99.90
46976;DHT22;32724;51.094;6.996;2022-12-11T16:45:29;1.00;99.90
46976;DHT22;32724;51.094;6.996;2022-12-11T16:47:54;1.00;99.90
46976;DHT22;32724;51.094;6.996;2022-12-11T16:50:20;1.00;99.90
46976;DHT22;32724;51.094;6.996;2022-12-11T16:52:46;1.00;99.90
46976;DHT22;32724;51.094;6.996;2022-12-11T16:55:13;1.00;99.90
46976;DHT22;32724;51.094;6.996;2022-12-11T16:57:39;1.00;99.90
46976;DHT22;32724;51.094;6.996;2022-12-11T17:00:05;1.00;99.90
46976;DHT22;32724;51.094;6.996;2022-12-11T17:02:33;0.90;99.90
46976;DHT22;32724;51.094;6.996;2022-12-11T17:04:59;0.90;99.90
46976;DHT22;32724;51.094;6.996;2022-12-11T17:07:24;1.00;99.90